Windsor, Pennsylvania
Current Conditions -  °F | °C
As of 11:53 PM on Saturday 25 Oct 2014 (Local Time) from KTHV Reporting Station
Clear Clear  
Wind Chill: 63°   Ceiling: Unl
Heat Index: 63°   Visibility: 10mi
Dew Point: 48°   Wind: 8mph
Humidity: 58%   Direction: 240°WSW
Pressure: 29.65"   Gusts: 18mph
Location:  39.92°N, 76.58°W
Report Text: KTHV 260353Z AUTO 24007G16KT 10SM CLR 17/09 A2965 RMK AO2 SLP039 T01720089
Loading
Personal Weather Stations






























Interactive Weather Map
Tropical Storm Tracking
New forecast layout! Learn more

10-Day Weather Forecast

Advertisements
Track Severe Weather on mobile